createdAt,value
2022-08-01T00:01:18.106Z,46.64
2022-08-01T00:03:47.508Z,46.78
2022-08-01T00:06:15.545Z,47.12
2022-08-01T00:08:43.717Z,46.76
2022-08-01T00:11:11.826Z,47.10
2022-08-01T00:13:39.878Z,46.87
2022-08-01T00:16:07.929Z,46.92
2022-08-01T00:18:36.640Z,47.10
2022-08-01T00:21:06.565Z,47.21
2022-08-01T00:23:34.540Z,47.00
2022-08-01T00:26:02.708Z,46.86
2022-08-01T00:28:30.748Z,46.80
2022-08-01T00:30:58.696Z,46.75
2022-08-01T00:33:26.800Z,46.96
2022-08-01T00:35:54.927Z,46.70
2022-08-01T00:38:24.489Z,46.85
2022-08-01T00:40:54.737Z,46.50
2022-08-01T00:43:22.742Z,46.38
2022-08-01T00:45:50.942Z,46.56
2022-08-01T00:48:18.996Z,46.86
2022-08-01T00:50:47.525Z,46.71
2022-08-01T00:53:18.836Z,46.66
2022-08-01T00:55:49.690Z,46.64
2022-08-01T00:58:17.935Z,47.07
2022-08-01T01:00:53.646Z,46.83
2022-08-01T01:03:49.332Z,46.78
2022-08-01T01:06:29.093Z,47.02
2022-08-01T01:09:14.121Z,46.67
2022-08-01T01:11:51.085Z,46.97
2022-08-01T01:14:29.685Z,46.45
2022-08-01T01:17:00.679Z,46.33
2022-08-01T01:19:35.332Z,46.77
2022-08-01T01:22:19.021Z,46.59
2022-08-01T01:24:59.151Z,46.82
2022-08-01T01:27:44.820Z,46.46
2022-08-01T01:30:14.546Z,46.63
2022-08-01T01:32:47.299Z,46.73
2022-08-01T01:35:19.643Z,46.69
2022-08-01T01:37:49.905Z,46.32
2022-08-01T01:40:19.873Z,46.27
2022-08-01T01:42:49.588Z,46.23
2022-08-01T01:45:20.242Z,46.67
2022-08-01T01:47:48.701Z,46.32
2022-08-01T01:50:17.446Z,46.49
2022-08-01T01:52:48.010Z,46.48
2022-08-01T01:55:18.307Z,46.63
2022-08-01T01:57:47.732Z,46.66
2022-08-01T02:00:17.561Z,46.62
2022-08-01T02:02:48.085Z,46.39
2022-08-01T02:05:17.203Z,46.66
2022-08-01T02:07:46.859Z,46.88
2022-08-01T02:10:19.330Z,46.69
2022-08-01T02:12:51.030Z,46.41
2022-08-01T02:15:21.298Z,46.76
2022-08-01T02:17:53.650Z,46.71
2022-08-01T02:20:21.577Z,47.35
2022-08-01T02:22:53.289Z,46.25
2022-08-01T02:25:25.949Z,46.68
2022-08-01T02:28:01.716Z,46.95
2022-08-01T02:30:34.754Z,46.87
2022-08-01T02:33:15.726Z,46.72
2022-08-01T02:36:29.144Z,46.96
2022-08-01T02:38:39.812Z,46.93
2022-08-01T02:41:10.662Z,46.87
2022-08-01T02:43:40.737Z,46.94
2022-08-01T02:46:13.378Z,46.94
2022-08-01T02:48:45.657Z,47.08
2022-08-01T02:51:17.032Z,47.20
2022-08-01T02:53:46.912Z,47.09
2022-08-01T02:56:16.026Z,47.23
2022-08-01T02:58:45.202Z,47.13
2022-08-01T03:01:15.683Z,47.17
2022-08-01T03:03:45.767Z,47.35
2022-08-01T03:06:15.319Z,47.20
2022-08-01T03:08:44.750Z,47.35
2022-08-01T03:11:14.747Z,47.14
2022-08-01T03:13:44.769Z,47.12
2022-08-01T03:16:15.486Z,47.24
2022-08-01T03:18:47.030Z,47.37
2022-08-01T03:21:16.337Z,47.12
2022-08-01T03:23:45.930Z,47.12
2022-08-01T03:26:14.242Z,47.08
2022-08-01T03:28:44.941Z,47.24
2022-08-01T03:31:16.150Z,47.49
2022-08-01T03:33:45.623Z,47.09
2022-08-01T03:36:16.148Z,47.06
2022-08-01T03:38:47.246Z,47.20
2022-08-01T03:41:22.002Z,47.36
2022-08-01T03:43:57.104Z,47.42
2022-08-01T03:46:32.178Z,47.15
2022-08-01T03:49:08.078Z,47.71
2022-08-01T03:51:36.580Z,47.35
2022-08-01T03:54:06.435Z,47.44
2022-08-01T03:56:35.753Z,47.53
2022-08-01T03:59:05.268Z,47.17
2022-08-01T04:01:34.544Z,47.30
2022-08-01T04:04:06.337Z,47.38
2022-08-01T04:06:34.408Z,47.59
2022-08-01T04:09:02.532Z,47.40
2022-08-01T04:11:30.541Z,47.41
2022-08-01T04:13:58.811Z,47.62
2022-08-01T04:16:26.973Z,47.44
2022-08-01T04:18:54.937Z,47.45
2022-08-01T04:21:28.720Z,47.71
2022-08-01T04:24:00.470Z,47.75
2022-08-01T04:26:30.580Z,47.67
2022-08-01T04:28:59.118Z,47.77
2022-08-01T04:31:30.057Z,47.53
2022-08-01T04:34:04.053Z,47.86
2022-08-01T04:36:35.572Z,47.68
2022-08-01T04:39:06.051Z,47.71
2022-08-01T04:41:36.850Z,47.62
2022-08-01T04:44:05.494Z,47.87
2022-08-01T04:46:35.743Z,47.61
2022-08-01T04:49:04.154Z,47.82
2022-08-01T04:51:33.611Z,47.67
2022-08-01T04:54:02.049Z,47.68
2022-08-01T04:56:30.035Z,47.55
2022-08-01T04:59:15.557Z,48.09
2022-08-01T05:01:51.653Z,47.79
2022-08-01T05:04:19.829Z,47.88
2022-08-01T05:06:49.179Z,47.97
2022-08-01T05:09:17.254Z,47.98
2022-08-01T05:11:45.291Z,47.98
2022-08-01T05:14:13.322Z,47.99
2022-08-01T05:16:42.797Z,47.83
2022-08-01T05:19:11.585Z,47.53
2022-08-01T05:21:39.983Z,47.65
2022-08-01T05:24:09.694Z,47.63
2022-08-01T05:26:38.004Z,47.71
2022-08-01T05:29:06.210Z,47.76
2022-08-01T05:31:35.889Z,47.55
2022-08-01T05:34:04.809Z,47.81
2022-08-01T05:36:32.787Z,47.65
2022-08-01T05:39:01.559Z,47.42
2022-08-01T05:41:30.983Z,47.56
2022-08-01T05:43:59.077Z,48.01
2022-08-01T05:46:27.575Z,47.63
2022-08-01T05:48:56.164Z,47.52
2022-08-01T05:51:24.177Z,47.57
2022-08-01T05:53:52.300Z,47.83
2022-08-01T05:56:20.869Z,47.67
2022-08-01T05:58:50.478Z,47.63
2022-08-01T06:01:18.856Z,47.77
2022-08-01T06:03:47.332Z,47.77
2022-08-01T06:06:15.991Z,47.72
2022-08-01T06:08:43.864Z,47.75
2022-08-01T06:11:14.750Z,47.63
2022-08-01T06:13:48.502Z,47.85
2022-08-01T06:16:23.036Z,47.45
2022-08-01T06:18:54.969Z,47.22
2022-08-01T06:21:24.426Z,47.22
2022-08-01T06:23:52.193Z,47.17
2022-08-01T06:26:20.317Z,46.50
2022-08-01T06:28:48.358Z,47.18
2022-08-01T06:31:16.627Z,47.28
2022-08-01T06:33:46.947Z,47.38
2022-08-01T06:36:15.087Z,47.45
2022-08-01T06:38:46.366Z,47.46
2022-08-01T06:41:23.854Z,47.35
2022-08-01T06:43:57.662Z,47.44
2022-08-01T06:46:30.530Z,47.03
2022-08-01T06:49:11.573Z,47.09
2022-08-01T06:51:40.601Z,47.08
2022-08-01T06:54:20.329Z,47.02
2022-08-01T06:56:51.297Z,46.99
2022-08-01T06:59:34.390Z,47.32
2022-08-01T07:05:16.904Z,46.95
2022-08-01T07:07:59.388Z,47.24
2022-08-01T07:10:27.519Z,46.89
2022-08-01T07:13:09.781Z,46.17
2022-08-01T07:15:51.209Z,47.06
2022-08-01T07:18:32.786Z,46.32
2022-08-01T07:22:34.118Z,45.33
2022-08-01T07:41:52.664Z,44.39
2022-08-01T07:48:13.643Z,43.66
2022-08-01T07:54:00.122Z,44.67
2022-08-01T07:56:33.403Z,43.84
2022-08-01T07:59:05.779Z,42.89
2022-08-01T08:02:10.528Z,42.92
2022-08-01T08:04:53.467Z,43.32
2022-08-01T08:10:17.427Z,42.97
2022-08-01T08:13:10.616Z,42.82
2022-08-01T08:16:15.170Z,42.44
2022-08-01T08:20:09.580Z,42.63
2022-08-01T08:33:41.857Z,40.93
2022-08-01T08:36:12.461Z,41.41
2022-08-01T08:38:41.357Z,41.40
2022-08-01T08:41:10.329Z,41.63
2022-08-01T08:43:38.368Z,41.77
2022-08-01T08:46:09.940Z,41.71
2022-08-01T08:48:39.535Z,41.47
2022-08-01T08:51:09.673Z,41.58
2022-08-01T08:53:44.351Z,40.96
2022-08-01T08:56:15.048Z,40.92
2022-08-01T08:58:45.810Z,40.90
2022-08-01T09:01:14.518Z,40.33
2022-08-01T09:03:42.857Z,40.20
2022-08-01T09:06:11.142Z,39.87
2022-08-01T09:08:40.501Z,39.96
2022-08-01T09:11:08.570Z,40.17
2022-08-01T09:13:36.642Z,40.15
2022-08-01T09:16:19.278Z,39.27
2022-08-01T09:18:53.633Z,39.75
2022-08-01T09:21:25.240Z,38.91
2022-08-01T09:23:59.747Z,38.78
2022-08-01T09:26:31.942Z,37.72
2022-08-01T09:29:01.340Z,38.37
2022-08-01T09:31:38.557Z,37.83
2022-08-01T09:34:08.543Z,37.48
2022-08-01T09:36:54.351Z,36.81
2022-08-01T09:39:25.727Z,37.20
2022-08-01T09:41:55.037Z,36.88
2022-08-01T09:44:44.060Z,35.46
2022-08-01T09:47:15.523Z,36.14
2022-08-01T09:49:50.548Z,35.66
2022-08-01T09:52:25.922Z,35.77
2022-08-01T09:54:57.970Z,35.13
2022-08-01T09:57:26.261Z,35.44
2022-08-01T09:59:58.864Z,35.21
2022-08-01T10:02:31.324Z,34.98
2022-08-01T10:05:09.033Z,34.89
2022-08-01T10:07:43.841Z,34.80
2022-08-01T10:10:16.001Z,34.20
2022-08-01T10:12:45.835Z,34.15
2022-08-01T10:15:18.053Z,34.02
2022-08-01T10:17:57.537Z,33.53
2022-08-01T10:20:30.960Z,33.81
2022-08-01T10:23:06.058Z,33.90
2022-08-01T10:25:46.680Z,33.61
2022-08-01T10:28:21.506Z,33.81
2022-08-01T10:30:53.310Z,33.34
2022-08-01T10:33:52.664Z,32.77
2022-08-01T10:36:12.507Z,33.10
2022-08-01T10:38:42.368Z,32.64
2022-08-01T10:41:16.727Z,32.49
2022-08-01T10:43:46.871Z,32.21
2022-08-01T10:46:15.486Z,31.92
2022-08-01T10:48:52.163Z,31.33
2022-08-01T10:51:22.417Z,31.83
2022-08-01T10:54:11.775Z,31.58
2022-08-01T10:56:46.257Z,30.97
2022-08-01T10:59:50.312Z,31.61
2022-08-01T11:02:11.317Z,31.69
2022-08-01T11:04:56.084Z,30.86
2022-08-01T11:07:37.181Z,31.51
2022-08-01T11:10:14.839Z,31.55
2022-08-01T11:12:45.307Z,31.45
2022-08-01T11:15:30.219Z,30.40
2022-08-01T11:18:01.222Z,31.54
2022-08-01T11:20:32.483Z,30.77
2022-08-01T11:23:18.619Z,30.82
2022-08-01T11:26:10.339Z,30.90
2022-08-01T11:28:50.337Z,31.36
2022-08-01T11:31:30.329Z,31.47
2022-08-01T11:34:05.419Z,31.03
2022-08-01T11:36:57.538Z,30.89
2022-08-01T11:39:21.843Z,30.74
2022-08-01T11:41:50.460Z,30.84
2022-08-01T11:44:26.753Z,30.32
2022-08-01T11:47:08.611Z,29.65
2022-08-01T11:49:51.511Z,29.42
2022-08-01T11:52:21.841Z,29.92
2022-08-01T11:54:52.627Z,29.81
2022-08-01T11:57:23.585Z,29.72
2022-08-01T12:00:02.466Z,29.38
2022-08-01T12:02:40.553Z,29.66
2022-08-01T12:05:12.057Z,29.79
2022-08-01T12:07:42.848Z,29.30
2022-08-01T12:10:12.686Z,28.92
2022-08-01T12:12:46.111Z,28.46
2022-08-01T12:15:15.789Z,28.88
2022-08-01T12:17:58.668Z,28.98
2022-08-01T12:20:31.269Z,29.04
2022-08-01T12:23:01.425Z,28.80
2022-08-01T12:25:29.740Z,28.58
2022-08-01T12:28:02.188Z,28.37
2022-08-01T12:30:36.049Z,28.79
2022-08-01T12:33:06.143Z,28.82
2022-08-01T12:35:34.687Z,28.33
2022-08-01T12:38:05.291Z,28.28
2022-08-01T12:40:34.613Z,27.92
2022-08-01T12:43:04.482Z,27.98
2022-08-01T12:45:36.637Z,27.44
2022-08-01T12:48:10.108Z,26.93
2022-08-01T12:50:39.885Z,27.40
2022-08-01T12:53:08.924Z,26.75
2022-08-01T12:55:58.792Z,27.13
2022-08-01T12:58:33.805Z,27.18
2022-08-01T13:01:08.537Z,27.22
2022-08-01T13:03:36.697Z,27.69
2022-08-01T13:06:13.469Z,26.91
2022-08-01T13:08:41.607Z,27.42
2022-08-01T13:11:15.369Z,27.67
2022-08-01T13:13:48.327Z,27.15
2022-08-01T13:16:30.962Z,27.35
2022-08-01T13:19:07.866Z,27.36
2022-08-01T13:21:53.721Z,27.39
2022-08-01T13:24:27.930Z,27.36
2022-08-01T13:27:01.473Z,27.18
2022-08-01T13:29:34.416Z,27.48
2022-08-01T13:32:27.856Z,26.81
2022-08-01T13:35:03.968Z,26.86
2022-08-01T13:37:32.370Z,27.43
2022-08-01T13:40:00.531Z,27.27
2022-08-01T13:42:30.156Z,27.13
2022-08-01T13:44:58.223Z,26.86
2022-08-01T13:47:31.979Z,26.94
2022-08-01T13:50:03.935Z,26.93
2022-08-01T13:52:32.688Z,27.38
2022-08-01T13:55:00.947Z,27.30
2022-08-01T13:57:36.267Z,27.30
2022-08-01T14:00:07.389Z,27.55
2022-08-01T14:02:41.606Z,27.24
2022-08-01T14:05:09.870Z,27.38
2022-08-01T14:07:38.347Z,27.32
2022-08-01T14:10:20.002Z,27.10
2022-08-01T14:12:48.516Z,28.40
2022-08-01T14:15:36.818Z,27.89
2022-08-01T14:18:06.886Z,27.44
2022-08-01T14:20:35.381Z,27.77
2022-08-01T14:23:03.356Z,28.22
2022-08-01T14:26:00.241Z,27.66
2022-08-01T14:28:19.701Z,27.43
2022-08-01T14:30:47.626Z,27.64
2022-08-01T14:33:17.095Z,27.85
2022-08-01T14:36:01.466Z,27.74
2022-08-01T14:38:34.340Z,27.70
2022-08-01T14:41:04.634Z,27.82
2022-08-01T14:43:34.169Z,27.74
2022-08-01T14:46:04.484Z,27.56
2022-08-01T14:48:34.170Z,27.73
2022-08-01T14:51:03.621Z,27.49
2022-08-01T14:53:34.231Z,27.59
2022-08-01T14:56:04.710Z,27.63
2022-08-01T14:58:32.712Z,28.25
2022-08-01T15:01:01.496Z,28.45
2022-08-01T15:03:29.721Z,28.20
2022-08-01T15:05:59.154Z,28.23
2022-08-01T15:08:27.437Z,28.64
2022-08-01T15:10:55.416Z,28.58
2022-08-01T15:13:23.383Z,28.42
2022-08-01T15:15:51.426Z,28.85
2022-08-01T15:18:19.395Z,29.36
2022-08-01T15:20:47.499Z,29.43
2022-08-01T15:23:16.881Z,29.48
2022-08-01T15:25:44.890Z,29.27
2022-08-01T15:28:13.452Z,29.30
2022-08-01T15:30:41.517Z,29.16
2022-08-01T15:33:09.679Z,29.14
2022-08-01T15:35:37.899Z,29.44
2022-08-01T15:38:05.885Z,29.16
2022-08-01T15:40:35.647Z,29.29
2022-08-01T15:43:04.574Z,29.34
2022-08-01T15:45:48.851Z,29.68
2022-08-01T15:48:17.584Z,29.67
2022-08-01T15:50:45.998Z,29.80
2022-08-01T15:53:14.173Z,30.02
2022-08-01T15:55:46.622Z,29.70
2022-08-01T15:58:21.049Z,30.11
2022-08-01T16:00:49.057Z,29.97
2022-08-01T16:03:17.054Z,30.18
2022-08-01T16:05:45.151Z,30.20
2022-08-01T16:08:13.836Z,30.32
2022-08-01T16:10:43.713Z,30.06
2022-08-01T16:13:12.934Z,30.51
2022-08-01T16:15:41.744Z,30.30
2022-08-01T16:18:13.030Z,30.29
2022-08-01T16:20:45.541Z,30.38
2022-08-01T16:23:14.665Z,30.81
2022-08-01T16:25:44.975Z,30.59
2022-08-01T16:28:14.080Z,30.51
2022-08-01T16:30:48.585Z,30.51
2022-08-01T16:33:45.843Z,30.73
2022-08-01T16:36:17.499Z,30.83
2022-08-01T16:38:45.706Z,30.55
2022-08-01T16:41:19.002Z,30.51
2022-08-01T16:43:53.732Z,30.48
2022-08-01T16:46:22.474Z,30.34
2022-08-01T16:48:50.586Z,30.42
2022-08-01T16:51:19.909Z,30.39
2022-08-01T16:53:47.934Z,30.29
2022-08-01T16:56:17.540Z,30.14
2022-08-01T16:58:45.948Z,30.25
2022-08-01T17:01:58.085Z,30.18
2022-08-01T17:04:02.416Z,30.39
2022-08-01T17:06:30.955Z,30.23
2022-08-01T17:08:59.316Z,30.26
2022-08-01T17:11:28.704Z,30.33
2022-08-01T17:13:56.877Z,30.01
2022-08-01T17:16:24.942Z,29.76
2022-08-01T17:18:53.293Z,29.29
2022-08-01T17:21:21.281Z,29.49
2022-08-01T17:23:49.366Z,29.25
2022-08-01T17:26:17.363Z,28.90
2022-08-01T17:28:46.802Z,29.07
2022-08-01T17:31:14.838Z,28.99
2022-08-01T17:33:45.386Z,28.93
2022-08-01T17:36:15.293Z,28.93
2022-08-01T17:38:43.295Z,28.69
2022-08-01T17:41:11.384Z,28.89
2022-08-01T17:43:39.320Z,29.11
2022-08-01T17:46:09.535Z,28.61
2022-08-01T17:48:37.624Z,28.84
2022-08-01T17:51:06.446Z,28.73
2022-08-01T17:53:34.862Z,28.34
2022-08-01T17:56:05.798Z,28.60
2022-08-01T17:58:51.904Z,28.67
2022-08-01T18:01:26.846Z,28.56
2022-08-01T18:03:57.607Z,28.57
2022-08-01T18:06:27.273Z,28.31
2022-08-01T18:08:59.365Z,28.54
2022-08-01T18:11:27.903Z,28.80
2022-08-01T18:13:57.011Z,28.48
2022-08-01T18:16:29.092Z,28.71
2022-08-01T18:18:57.750Z,28.86
2022-08-01T18:21:25.895Z,29.05
2022-08-01T18:23:53.915Z,28.88
2022-08-01T18:26:22.432Z,29.03
2022-08-01T18:28:50.971Z,29.18
2022-08-01T18:31:20.771Z,29.12
2022-08-01T18:33:50.296Z,29.20
2022-08-01T18:36:33.201Z,29.08
2022-08-01T18:39:04.547Z,29.19
2022-08-01T18:41:33.114Z,29.08
2022-08-01T18:44:05.560Z,29.24
2022-08-01T18:46:37.617Z,29.21
2022-08-01T18:49:10.222Z,29.00
2022-08-01T18:51:43.737Z,29.03
2022-08-01T18:54:15.495Z,29.18
2022-08-01T18:56:44.445Z,28.99
2022-08-01T18:59:13.281Z,29.27
2022-08-01T19:01:41.459Z,29.01
2022-08-01T19:04:11.103Z,29.08
2022-08-01T19:06:40.363Z,29.30
2022-08-01T19:09:09.248Z,29.00
2022-08-01T19:11:38.229Z,29.05
2022-08-01T19:14:06.497Z,29.22
2022-08-01T19:16:35.095Z,29.34
2022-08-01T19:19:07.054Z,29.20
2022-08-01T19:21:38.507Z,29.85
2022-08-01T19:24:22.965Z,29.26
2022-08-01T19:26:53.517Z,29.54
2022-08-01T19:29:23.866Z,29.38
2022-08-01T19:32:01.364Z,29.82
2022-08-01T19:34:31.058Z,30.00
2022-08-01T19:37:00.480Z,29.82
2022-08-01T19:39:28.873Z,30.15
2022-08-01T19:41:59.482Z,29.95
2022-08-01T19:44:29.685Z,30.09
2022-08-01T19:46:57.809Z,30.38
2022-08-01T19:49:26.284Z,30.27
2022-08-01T19:51:56.890Z,30.26
2022-08-01T19:54:30.209Z,30.59
2022-08-01T19:57:01.818Z,30.59
2022-08-01T19:59:33.192Z,30.44
2022-08-01T20:02:01.440Z,30.69
2022-08-01T20:04:29.945Z,30.47
2022-08-01T20:06:58.089Z,30.71
2022-08-01T20:09:28.698Z,30.89
2022-08-01T20:11:56.922Z,30.87
2022-08-01T20:14:26.605Z,31.10
2022-08-01T20:16:56.343Z,31.13
2022-08-01T20:19:25.722Z,31.16
2022-08-01T20:22:02.629Z,31.37
2022-08-01T20:24:40.948Z,31.30
2022-08-01T20:27:11.355Z,31.31
2022-08-01T20:29:40.251Z,31.27
2022-08-01T20:32:09.532Z,31.53
2022-08-01T20:34:40.670Z,31.28
2022-08-01T20:37:13.140Z,31.69
2022-08-01T20:39:45.101Z,31.73
2022-08-01T20:42:14.654Z,31.70
2022-08-01T20:44:43.373Z,31.56
2022-08-01T20:47:11.961Z,31.80
2022-08-01T20:49:43.385Z,31.75
2022-08-01T20:52:13.625Z,31.98
2022-08-01T20:54:45.220Z,32.28
2022-08-01T20:57:20.463Z,32.07
2022-08-01T20:59:56.847Z,32.26
2022-08-01T21:02:42.578Z,32.38
2022-08-01T21:05:12.141Z,32.09
2022-08-01T21:07:44.242Z,32.45
2022-08-01T21:10:16.125Z,32.56
2022-08-01T21:12:47.394Z,32.36
2022-08-01T21:15:25.671Z,32.56
2022-08-01T21:17:58.992Z,32.72
2022-08-01T21:20:29.846Z,32.57
2022-08-01T21:23:09.769Z,32.68
2022-08-01T21:25:39.334Z,32.76
2022-08-01T21:28:07.428Z,32.85
2022-08-01T21:30:37.119Z,32.72
2022-08-01T21:33:06.281Z,32.93
2022-08-01T21:35:35.832Z,33.11
2022-08-01T21:38:04.583Z,33.05
2022-08-01T21:40:34.287Z,33.04
2022-08-01T21:43:04.822Z,33.43
2022-08-01T21:45:32.894Z,33.48
2022-08-01T21:48:02.068Z,33.54
2022-08-01T21:50:40.141Z,33.37
2022-08-01T21:53:17.335Z,33.74
2022-08-01T21:56:15.080Z,33.93
2022-08-01T21:58:52.777Z,33.85
2022-08-01T22:01:28.282Z,33.91
2022-08-01T22:04:00.606Z,33.81
2022-08-01T22:06:29.571Z,34.33
2022-08-01T22:09:01.367Z,33.79
2022-08-01T22:11:31.360Z,34.16
2022-08-01T22:14:04.966Z,33.87
2022-08-01T22:16:34.638Z,33.86
2022-08-01T22:19:04.334Z,34.35
2022-08-01T22:21:34.200Z,34.02
2022-08-01T22:24:05.099Z,34.30
2022-08-01T22:26:34.622Z,34.26
2022-08-01T22:29:06.052Z,34.40
2022-08-01T22:31:37.942Z,34.42
2022-08-01T22:34:07.004Z,34.44
2022-08-01T22:36:35.022Z,34.71
2022-08-01T22:39:03.087Z,34.96
2022-08-01T22:42:01.373Z,34.80
2022-08-01T22:44:30.592Z,35.27
2022-08-01T22:47:04.377Z,34.81
2022-08-01T22:49:36.138Z,35.07
2022-08-01T22:52:12.958Z,35.24
2022-08-01T22:54:42.713Z,34.92
2022-08-01T22:57:15.650Z,35.20
2022-08-01T22:59:49.782Z,35.21
2022-08-01T23:02:19.758Z,34.97
2022-08-01T23:04:49.690Z,35.25
2022-08-01T23:07:21.379Z,35.31
2022-08-01T23:09:54.180Z,35.38
2022-08-01T23:12:24.407Z,35.33
2022-08-01T23:14:55.635Z,35.60
2022-08-01T23:17:26.286Z,35.98
2022-08-01T23:19:58.460Z,35.84
2022-08-01T23:22:29.484Z,36.16
2022-08-01T23:25:05.180Z,35.96
2022-08-01T23:27:51.435Z,36.32
2022-08-01T23:30:27.634Z,36.60
2022-08-01T23:32:55.798Z,36.37
2022-08-01T23:35:24.288Z,36.42
2022-08-01T23:37:53.643Z,36.45
2022-08-01T23:40:24.721Z,36.62
2022-08-01T23:42:54.669Z,36.82
2022-08-01T23:45:23.271Z,36.89
2022-08-01T23:47:53.395Z,36.57
2022-08-01T23:50:22.525Z,36.73
2022-08-01T23:52:51.446Z,36.94
2022-08-01T23:58:01.005Z,36.71
